Time;durP1;ratioP1;P1;durP2;ratioP2;P2;SDS_P1;SDS_P2;PMS_P1;PMS_P2;Temp;Humidity;BMP_temperature;BMP_pressure;BME280_temperature;BME280_humidity;BME280_pressure;Samples;Min_cycle;Max_cycle;Signal;HPM_P1;HPM_P2
2020/12/31 00:00:58;;;;;;;5.53;2.70;;;;;;;1.34;84.82;98248.41;5032285;28;20049;-81
2020/12/31 00:03:24;;;;;;;4.80;3.25;;;;;;;1.26;84.82;98238.44;5032978;28;20378;-80
2020/12/31 00:05:51;;;;;;;5.65;3.30;;;;;;;1.20;84.23;98241.72;5018768;28;20470;-81
2020/12/31 00:08:17;;;;;;;4.72;3.08;;;;;;;1.08;84.80;98235.72;5012557;28;20042;-81
2020/12/31 00:10:43;;;;;;;5.78;3.00;;;;;;;0.98;85.42;98225.06;5013046;28;20096;-80
2020/12/31 00:13:12;;;;;;;5.10;3.22;;;;;;;0.96;85.60;98218.16;5013088;28;20046;-81
2020/12/31 00:15:39;;;;;;;4.28;3.15;;;;;;;1.04;84.89;98228.97;5021821;28;20050;-81
2020/12/31 00:18:05;;;;;;;5.28;3.22;;;;;;;1.05;85.10;98226.16;5012578;28;20053;-81
2020/12/31 00:20:32;;;;;;;6.47;3.28;;;;;;;0.92;84.99;98216.75;5012880;28;20050;-81
2020/12/31 00:22:58;;;;;;;5.07;2.95;;;;;;;0.93;85.07;98232.66;5024899;28;20514;-81
2020/12/31 00:25:25;;;;;;;6.68;3.03;;;;;;;0.92;85.76;98231.00;5032679;28;20145;-81
2020/12/31 00:27:51;;;;;;;4.22;3.13;;;;;;;0.88;85.85;98238.47;5032186;28;20555;-81
2020/12/31 00:30:18;;;;;;;3.72;2.70;;;;;;;0.75;85.88;98218.38;5032719;28;20057;-81
2020/12/31 00:32:45;;;;;;;5.53;3.50;;;;;;;0.83;85.75;98232.72;5033116;28;20057;-81
2020/12/31 00:35:15;;;;;;;5.28;3.60;;;;;;;0.84;85.71;98233.53;5032830;28;20045;-81
2020/12/31 00:37:41;;;;;;;3.72;2.97;;;;;;;0.62;86.57;98202.66;5032610;28;20494;-81
2020/12/31 00:40:08;;;;;;;5.32;2.55;;;;;;;0.56;86.75;98209.41;5032783;28;20049;-81
2020/12/31 00:42:34;;;;;;;5.35;3.08;;;;;;;0.65;86.56;98213.91;5032935;28;20061;-82
2020/12/31 00:45:04;;;;;;;3.97;2.50;;;;;;;0.49;86.17;98202.97;5031940;28;20064;-81
2020/12/31 00:47:34;;;;;;;4.18;3.13;;;;;;;0.57;86.51;98226.31;5032580;28;20119;-81
2020/12/31 00:50:00;;;;;;;4.70;3.10;;;;;;;0.60;86.06;98226.00;5033506;28;20049;-81
2020/12/31 00:52:26;;;;;;;4.55;3.03;;;;;;;0.57;86.51;98224.47;5032055;28;20076;-81
2020/12/31 00:54:52;;;;;;;4.68;3.35;;;;;;;0.38;86.83;98205.78;5032460;28;20050;-81
2020/12/31 00:57:19;;;;;;;3.60;2.85;;;;;;;0.42;87.55;98224.09;5031664;28;20064;-81
2020/12/31 00:59:45;;;;;;;3.83;3.08;;;;;;;0.22;88.02;98188.50;5032620;28;20053;-80
2020/12/31 01:02:12;;;;;;;5.25;3.30;;;;;;;0.37;88.02;98204.94;5032333;28;20049;-80
2020/12/31 01:04:39;;;;;;;5.82;3.45;;;;;;;0.44;87.54;98214.09;5031990;28;20041;-81
2020/12/31 01:07:05;;;;;;;8.77;3.60;;;;;;;0.48;87.60;98218.16;5033024;28;20053;-81
2020/12/31 01:09:32;;;;;;;4.50;3.53;;;;;;;0.55;88.05;98214.91;5034861;28;20496;-81
2020/12/31 01:11:58;;;;;;;8.53;4.13;;;;;;;0.65;87.93;98227.28;5036308;28;20104;-81
2020/12/31 01:14:26;;;;;;;6.20;4.00;;;;;;;0.71;87.84;98220.50;5036131;28;20061;-80
2020/12/31 01:16:58;;;;;;;4.95;3.50;;;;;;;0.68;88.03;98216.28;5036209;28;20045;-81
2020/12/31 01:19:24;;;;;;;4.80;3.17;;;;;;;0.53;88.13;98191.81;5036452;28;20053;-81
2020/12/31 01:21:52;;;;;;;7.03;3.97;;;;;;;0.42;88.28;98185.81;5035895;28;20054;-81
2020/12/31 01:24:18;;;;;;;5.00;2.95;;;;;;;0.62;87.67;98206.16;5034626;28;20065;-81
2020/12/31 01:26:44;;;;;;;6.40;3.33;;;;;;;0.62;88.22;98214.19;5034653;28;20045;-81
2020/12/31 01:29:10;;;;;;;4.53;2.87;;;;;;;0.61;88.13;98211.66;5032971;28;20438;-81
2020/12/31 01:31:37;;;;;;;6.40;3.57;;;;;;;0.59;88.87;98206.47;5035193;28;20430;-81
2020/12/31 01:34:05;;;;;;;4.00;3.22;;;;;;;0.65;88.67;98216.56;5033664;28;20379;-81
2020/12/31 01:36:32;;;;;;;7.40;3.53;;;;;;;0.67;88.01;98206.56;5035851;28;20478;-81
2020/12/31 01:38:59;;;;;;;4.70;3.45;;;;;;;0.69;87.97;98183.19;5036089;28;20405;-81
2020/12/31 01:41:26;;;;;;;7.10;3.57;;;;;;;0.83;87.38;98195.25;5035966;28;20061;-81
2020/12/31 01:44:08;;;;;;;5.23;3.23;;;;;;;0.79;87.73;98193.03;5035284;28;20042;-81
2020/12/31 01:46:40;;;;;;;5.90;3.30;;;;;;;0.89;86.79;98196.50;5031483;28;20042;-81
2020/12/31 01:49:08;;;;;;;4.53;3.40;;;;;;;0.85;86.74;98177.19;5035718;28;20060;-81
2020/12/31 01:51:35;;;;;;;9.40;4.30;;;;;;;0.96;86.53;98194.91;5035884;28;20079;-81
2020/12/31 01:54:04;;;;;;;5.00;3.33;;;;;;;0.75;86.10;98162.19;5035691;28;20573;-81
2020/12/31 01:56:31;;;;;;;4.80;3.30;;;;;;;0.90;86.38;98184.78;5035498;28;20049;-81
2020/12/31 01:58:58;;;;;;;6.17;3.93;;;;;;;0.86;85.89;98175.41;5035720;28;20060;-81
2020/12/31 02:01:25;;;;;;;5.13;3.60;;;;;;;0.86;86.19;98172.72;5016769;28;20046;-81
2020/12/31 02:03:52;;;;;;;5.10;3.30;;;;;;;0.82;86.42;98176.66;5035480;28;20056;-81
2020/12/31 02:06:21;;;;;;;6.97;4.10;;;;;;;0.60;86.20;98162.66;5035403;28;20410;-81
2020/12/31 02:08:48;;;;;;;6.73;3.63;;;;;;;0.61;86.43;98177.72;5035387;28;20497;-81
2020/12/31 02:11:17;;;;;;;9.33;3.77;;;;;;;0.49;86.16;98163.69;5035243;28;20052;-81
2020/12/31 02:13:44;;;;;;;6.33;3.57;;;;;;;0.43;85.88;98145.53;5035062;28;20056;-81
2020/12/31 02:16:11;;;;;;;4.93;3.60;;;;;;;0.58;85.19;98170.00;5035260;28;20053;-81
2020/12/31 02:18:49;;;;;;;6.67;3.40;;;;;;;0.35;85.88;98158.81;5034912;28;20140;-81
2020/12/31 02:21:18;;;;;;;5.00;3.70;;;;;;;0.46;85.44;98173.84;5034410;28;20050;-81
2020/12/31 02:23:46;;;;;;;3.97;3.47;;;;;;;0.31;85.45;98173.44;5034581;28;20332;-81
2020/12/31 02:26:12;;;;;;;7.07;3.60;;;;;;;0.27;86.16;98178.25;5034569;28;20060;-81
2020/12/31 02:28:38;;;;;;;6.97;3.60;;;;;;;0.12;85.63;98175.19;5034343;28;20056;-81
2020/12/31 02:31:04;;;;;;;5.47;3.57;;;;;;;0.05;86.15;98179.41;5034368;28;20045;-81
2020/12/31 02:33:31;;;;;;;5.60;3.33;;;;;;;-0.12;85.50;98161.41;5034479;28;20433;-81
2020/12/31 02:35:57;;;;;;;7.47;3.43;;;;;;;-0.17;86.07;98159.16;5034346;28;20456;-81
2020/12/31 02:38:23;;;;;;;5.03;3.40;;;;;;;-0.21;85.76;98173.78;5034359;28;20076;-82
2020/12/31 02:40:50;;;;;;;4.63;3.33;;;;;;;-0.24;86.46;98174.06;5034596;28;20063;-81
2020/12/31 02:43:17;;;;;;;5.20;3.30;;;;;;;-0.24;86.31;98187.41;5034313;28;20191;-81
2020/12/31 02:45:44;;;;;;;6.07;4.20;;;;;;;-0.39;86.86;98174.50;5034250;28;20057;-82
2020/12/31 02:48:11;;;;;;;6.40;3.43;;;;;;;-0.50;86.75;98160.41;5034790;28;20046;-82
2020/12/31 02:50:38;;;;;;;4.50;3.40;;;;;;;-0.34;86.67;98184.75;5034756;28;20520;-81
2020/12/31 02:53:04;;;;;;;5.07;3.87;;;;;;;-0.44;87.17;98152.69;5034529;28;20489;-82
2020/12/31 02:55:30;;;;;;;5.47;3.50;;;;;;;-0.39;86.75;98158.47;5034791;28;20049;-82
2020/12/31 02:57:58;;;;;;;5.80;3.70;;;;;;;-0.28;86.28;98161.97;5034837;28;20055;-81
2020/12/31 03:00:24;;;;;;;7.80;3.97;;;;;;;-0.42;86.95;98156.06;5034482;28;20092;-82
2020/12/31 03:02:50;;;;;;;6.43;3.90;;;;;;;-0.27;86.54;98169.84;5034665;28;20053;-81
2020/12/31 03:05:19;;;;;;;13.60;3.67;;;;;;;-0.36;86.60;98162.69;5034209;28;20054;-82
2020/12/31 03:07:46;;;;;;;8.20;3.70;;;;;;;-0.44;86.93;98163.38;5034281;28;20048;-82
2020/12/31 03:10:12;;;;;;;5.50;3.57;;;;;;;-0.52;87.20;98159.72;5034571;28;20319;-82
2020/12/31 03:12:39;;;;;;;5.70;3.97;;;;;;;-0.46;87.34;98151.16;5034480;28;20046;-82
2020/12/31 03:15:09;;;;;;;6.47;3.70;;;;;;;-0.56;87.12;98151.13;5014155;28;20057;-82
2020/12/31 03:17:35;;;;;;;5.67;3.77;;;;;;;-0.55;87.31;98160.84;5021973;28;20057;-81
2020/12/31 03:20:02;;;;;;;5.20;3.63;;;;;;;-0.49;86.90;98165.63;5034190;28;20421;-81
2020/12/31 03:22:28;;;;;;;9.63;4.30;;;;;;;-0.43;86.57;98161.56;5034317;28;20046;-81
2020/12/31 03:24:54;;;;;;;5.43;4.20;;;;;;;-0.49;86.93;98143.44;5033972;28;20104;-81
2020/12/31 03:27:21;;;;;;;7.07;4.63;;;;;;;-0.33;87.55;98169.56;5034038;28;20045;-82
2020/12/31 03:29:47;;;;;;;6.30;3.93;;;;;;;-0.48;87.65;98140.63;5034079;28;20049;-81
2020/12/31 03:32:14;;;;;;;7.17;4.73;;;;;;;-0.21;86.74;98147.91;5033432;28;20050;-81
2020/12/31 03:34:40;;;;;;;10.13;4.03;;;;;;;-0.34;86.47;98127.84;5034019;28;20095;-81
2020/12/31 03:37:07;;;;;;;9.80;4.47;;;;;;;-0.42;87.05;98141.84;5034008;28;20448;-81
2020/12/31 03:39:33;;;;;;;6.77;3.97;;;;;;;-0.44;87.13;98135.81;5034430;28;20064;-81
2020/12/31 03:41:59;;;;;;;5.23;3.43;;;;;;;-0.56;87.89;98127.97;5033881;28;20057;-81
2020/12/31 03:44:26;;;;;;;7.03;4.30;;;;;;;-0.55;87.67;98145.66;5033463;28;20061;-81
2020/12/31 03:46:53;;;;;;;15.03;4.03;;;;;;;-0.49;88.05;98138.09;5033755;28;20057;-81
2020/12/31 03:49:20;;;;;;;4.40;3.27;;;;;;;-0.35;87.05;98140.31;5033829;28;20057;-81
2020/12/31 03:51:46;;;;;;;6.53;3.73;;;;;;;-0.46;86.35;98114.59;5034075;28;20053;-82
2020/12/31 03:54:13;;;;;;;5.73;3.80;;;;;;;-0.45;85.93;98118.09;5032283;28;20056;-81
2020/12/31 03:56:40;;;;;;;6.03;3.63;;;;;;;-0.43;86.11;98130.34;5033798;28;20049;-81
2020/12/31 03:59:06;;;;;;;8.63;4.03;;;;;;;-0.55;86.06;98112.78;5033394;28;20045;-81
2020/12/31 04:01:34;;;;;;;6.50;3.67;;;;;;;-0.66;86.68;98110.22;5033420;28;20057;-81
2020/12/31 04:04:00;;;;;;;6.37;3.67;;;;;;;-0.70;86.70;98125.69;5033440;28;20601;-81
2020/12/31 04:06:28;;;;;;;6.07;3.83;;;;;;;-0.74;86.49;98130.47;5033421;28;20065;-81
2020/12/31 04:08:54;;;;;;;6.53;3.77;;;;;;;-0.77;87.30;98130.75;5033621;28;20128;-81
2020/12/31 04:11:21;;;;;;;10.50;3.77;;;;;;;-1.00;87.40;98098.13;5033193;28;20100;-82
2020/12/31 04:13:47;;;;;;;5.27;3.60;;;;;;;-0.87;87.22;98110.34;5033166;28;20052;-82
2020/12/31 04:16:14;;;;;;;7.13;3.63;;;;;;;-1.00;87.04;98087.44;5032993;28;20052;-82
2020/12/31 04:18:40;;;;;;;6.10;3.47;;;;;;;-0.93;86.83;98093.09;5033519;28;20080;-81
2020/12/31 04:21:07;;;;;;;4.97;3.13;;;;;;;-0.99;86.30;98089.16;5033688;28;20053;-82
2020/12/31 04:23:34;;;;;;;6.90;3.73;;;;;;;-0.96;86.71;98102.22;5013783;28;20077;-82
2020/12/31 04:26:00;;;;;;;5.53;3.67;;;;;;;-1.08;86.84;98095.31;5014975;28;20053;-81
2020/12/31 04:28:27;;;;;;;4.53;3.23;;;;;;;-1.26;86.70;98077.28;5033222;28;20042;-81
2020/12/31 04:30:53;;;;;;;6.10;3.83;;;;;;;-1.25;86.26;98064.78;5033171;28;20050;-81
2020/12/31 04:33:19;;;;;;;4.47;3.13;;;;;;;-1.06;86.19;98085.34;5033210;28;20395;-81
2020/12/31 04:35:45;;;;;;;4.63;3.57;;;;;;;-1.13;85.66;98078.84;5032988;28;20069;-81
2020/12/31 04:38:12;;;;;;;8.53;3.67;;;;;;;-1.03;85.97;98094.91;5032951;28;20053;-81
2020/12/31 04:40:43;;;;;;;7.07;3.53;;;;;;;-1.05;86.25;98092.38;5033192;28;20049;-81
2020/12/31 04:43:10;;;;;;;4.90;3.00;;;;;;;-1.15;85.62;98084.34;5033582;28;20053;-81
2020/12/31 04:45:40;;;;;;;5.00;3.00;;;;;;;-1.17;85.59;98091.63;5016616;28;20108;-81
2020/12/31 04:48:08;;;;;;;7.25;3.47;;;;;;;-1.19;86.72;98084.75;5053485;28;20052;-81
2020/12/31 04:50:38;;;;;;;6.87;3.50;;;;;;;-1.19;86.02;98072.28;5057144;28;20394;-81
2020/12/31 04:53:06;;;;;;;6.80;3.57;;;;;;;-1.23;85.91;98073.53;5057223;28;20171;-81
2020/12/31 04:55:33;;;;;;;5.20;3.23;;;;;;;-1.20;85.11;98048.41;5056847;28;20060;-82
2020/12/31 04:58:01;;;;;;;5.90;3.63;;;;;;;-0.98;85.38;98073.97;5042161;28;20084;-81
2020/12/31 05:00:27;;;;;;;4.83;3.47;;;;;;;-1.03;84.84;98076.22;5036571;28;20504;-81
2020/12/31 05:02:54;;;;;;;4.63;3.37;;;;;;;-1.04;85.58;98083.38;5037144;28;20045;-81
2020/12/31 05:05:21;;;;;;;6.60;3.63;;;;;;;-1.16;84.99;98061.34;5036248;28;20041;-81
2020/12/31 05:07:50;;;;;;;5.40;3.50;;;;;;;-1.07;85.01;98068.50;5036716;28;20042;-81
2020/12/31 05:10:16;;;;;;;6.00;3.25;;;;;;;-1.22;84.58;98071.69;5036167;28;20053;-81
2020/12/31 05:12:42;;;;;;;4.67;3.27;;;;;;;-1.19;85.03;98077.63;5037067;28;20057;-82
2020/12/31 05:15:10;;;;;;;4.13;3.00;;;;;;;-1.19;84.59;98066.94;5016110;28;20418;-81
2020/12/31 05:17:36;;;;;;;5.40;3.60;;;;;;;-1.16;84.55;98082.66;5034908;28;20478;-82
2020/12/31 05:20:13;;;;;;;4.57;2.87;;;;;;;-1.38;84.99;98056.22;5036303;28;20053;-82
2020/12/31 05:22:40;;;;;;;5.87;3.70;;;;;;;-1.48;84.46;98041.03;5028995;28;20084;-82
2020/12/31 05:25:06;;;;;;;5.83;3.53;;;;;;;-1.33;84.48;98069.97;5036068;28;20099;-82
2020/12/31 05:27:32;;;;;;;4.70;3.57;;;;;;;-1.55;84.51;98049.72;5036157;28;20037;-82
2020/12/31 05:30:01;;;;;;;4.20;3.10;;;;;;;-1.48;84.65;98080.19;5036500;28;20050;-82
2020/12/31 05:32:29;;;;;;;4.83;3.20;;;;;;;-1.45;85.36;98088.75;5036557;28;20065;-82
2020/12/31 05:34:56;;;;;;;3.60;3.13;;;;;;;-1.72;85.65;98056.53;5036134;28;20061;-82
2020/12/31 05:37:24;;;;;;;7.37;3.67;;;;;;;-1.64;84.98;98064.69;5036486;28;20061;-82
2020/12/31 05:40:01;;;;;;;7.47;3.57;;;;;;;-1.67;85.27;98073.81;5036400;28;20046;-82
2020/12/31 05:42:29;;;;;;;5.60;3.23;;;;;;;-1.66;84.69;98075.47;5036109;28;20045;-82
2020/12/31 05:45:14;;;;;;;6.07;3.53;;;;;;;-1.85;85.15;98065.59;5035566;28;20411;-82
2020/12/31 05:47:49;;;;;;;4.90;2.90;;;;;;;-1.67;84.70;98063.16;5036190;28;20053;-82
2020/12/31 05:50:23;;;;;;;6.67;3.47;;;;;;;-1.62;84.12;98070.75;5028898;28;20060;-82
2020/12/31 05:52:51;;;;;;;5.30;3.50;;;;;;;-1.67;84.20;98057.81;5021345;28;20064;-82
2020/12/31 05:55:19;;;;;;;5.17;2.80;;;;;;;-1.54;83.73;98070.91;5034852;28;20041;-82
2020/12/31 05:57:48;;;;;;;6.33;3.10;;;;;;;-1.46;83.38;98072.88;5035825;28;20049;-81
2020/12/31 06:00:17;;;;;;;4.75;3.45;;;;;;;-1.64;83.67;98059.34;5036106;28;20122;-82
2020/12/31 06:02:53;;;;;;;4.80;3.20;;;;;;;-1.61;83.90;98059.94;5036354;28;20049;-82
2020/12/31 06:05:20;;;;;;;4.50;3.37;;;;;;;-1.66;83.43;98043.50;5035793;28;20108;-82
2020/12/31 06:07:49;;;;;;;4.63;3.50;;;;;;;-1.51;84.05;98064.47;5035640;28;20046;-83
2020/12/31 06:10:25;;;;;;;8.60;3.60;;;;;;;-1.57;83.75;98062.34;5034543;28;20084;-82
2020/12/31 06:12:55;;;;;;;4.97;2.87;;;;;;;-1.74;84.13;98047.84;5036099;28;20049;-82
2020/12/31 06:15:23;;;;;;;5.13;3.40;;;;;;;-1.58;83.66;98055.31;5035018;28;20054;-82
2020/12/31 06:17:52;;;;;;;4.13;3.23;;;;;;;-1.89;83.73;98016.22;5036064;28;20405;-83
2020/12/31 06:20:20;;;;;;;3.93;3.17;;;;;;;-1.69;83.28;98037.59;5035463;28;20107;-83
2020/12/31 06:23:02;;;;;;;4.17;3.20;;;;;;;-1.57;83.57;98049.84;5035490;28;20053;-82
2020/12/31 06:25:34;;;;;;;3.93;2.80;;;;;;;-1.66;83.86;98030.16;5033827;28;20057;-83
2020/12/31 06:28:05;;;;;;;3.60;3.17;;;;;;;-1.63;83.71;98047.72;5035451;28;20052;-83
2020/12/31 06:30:33;;;;;;;5.07;3.30;;;;;;;-1.69;83.08;98022.44;5035393;28;20056;-82
2020/12/31 06:33:21;;;;;;;5.57;2.73;;;;;;;-1.59;83.00;98042.97;5035445;28;20053;-83
2020/12/31 06:35:50;;;;;;;3.70;2.27;;;;;;;-1.85;84.16;98006.13;5032908;28;20068;-83
2020/12/31 06:38:26;;;;;;;3.47;2.67;;;;;;;-1.80;83.47;98006.59;5035373;28;22125;-82
2020/12/31 06:40:53;;;;;;;4.47;2.97;;;;;;;-1.65;83.37;98020.38;5035525;28;20045;-82
2020/12/31 06:43:19;;;;;;;4.40;3.10;;;;;;;-1.50;83.39;98042.16;5035330;28;20080;-82
2020/12/31 06:45:46;;;;;;;2.80;2.50;;;;;;;-1.50;82.63;98031.50;5035023;28;20065;-82
2020/12/31 06:48:37;;;;;;;4.10;2.93;;;;;;;-1.41;82.73;98030.69;5035102;28;20048;-82
2020/12/31 06:51:05;;;;;;;4.03;2.77;;;;;;;-1.76;83.17;97999.16;5035353;28;20061;-82
2020/12/31 06:53:32;;;;;;;5.33;3.20;;;;;;;-1.58;83.02;98024.19;5034254;28;20532;-82
2020/12/31 06:56:00;;;;;;;6.57;3.43;;;;;;;-1.51;82.87;98024.47;5034462;28;20056;-83
2020/12/31 06:58:27;;;;;;;4.17;2.60;;;;;;;-1.64;82.96;98011.38;5035173;28;20065;-82
2020/12/31 07:00:54;;;;;;;3.80;2.73;;;;;;;-1.44;82.98;98038.94;5034724;28;20045;-82
2020/12/31 07:03:47;;;;;;;4.10;2.93;;;;;;;-1.34;82.31;98049.63;5034826;28;20049;-83
2020/12/31 07:06:27;;;;;;;5.67;3.27;;;;;;;-1.36;82.65;98036.44;5014617;28;20049;-82
2020/12/31 07:08:55;;;;;;;5.40;2.97;;;;;;;-1.40;83.14;98037.72;5014872;28;20054;-82
2020/12/31 07:11:29;;;;;;;3.70;2.80;;;;;;;-1.36;82.63;98038.25;5019820;28;20049;-82
2020/12/31 07:13:56;;;;;;;7.17;3.63;;;;;;;-1.43;82.54;98020.16;5034127;28;20072;-83
2020/12/31 07:16:41;;;;;;;5.20;3.43;;;;;;;-1.39;82.89;98028.72;5034432;28;20053;-82
2020/12/31 07:19:09;;;;;;;3.73;2.93;;;;;;;-1.30;82.46;98040.38;5034636;28;20110;-83
2020/12/31 07:21:38;;;;;;;4.67;3.30;;;;;;;-1.39;83.24;98022.53;5034813;28;20049;-83
2020/12/31 07:24:28;;;;;;;5.10;3.65;;;;;;;-1.31;82.35;98025.34;5034737;28;20080;-82
2020/12/31 07:26:56;;;;;;;5.17;3.30;;;;;;;-1.28;83.07;98043.75;5034431;28;20050;-81
2020/12/31 07:29:30;;;;;;;5.10;2.90;;;;;;;-1.36;82.67;98006.28;5033810;28;20041;-80
2020/12/31 07:31:56;;;;;;;8.70;3.77;;;;;;;-1.28;83.17;98022.41;5034298;28;20045;-81
2020/12/31 07:34:26;;;;;;;9.23;4.00;;;;;;;-1.13;82.59;98045.06;5033454;28;20488;-81
2020/12/31 07:37:01;;;;;;;5.22;3.67;;;;;;;-1.08;82.80;98036.63;5034399;28;20052;-83
2020/12/31 07:39:28;;;;;;;5.67;3.40;;;;;;;-1.21;83.34;98018.22;5033968;28;20053;-82
2020/12/31 07:42:15;;;;;;;8.17;3.67;;;;;;;-1.11;83.11;98034.25;5035172;28;20056;-83
2020/12/31 07:44:54;;;;;;;3.63;2.70;;;;;;;-1.05;82.75;98035.50;5033739;28;20421;-83
2020/12/31 07:47:23;;;;;;;4.57;2.95;;;;;;;-0.96;82.39;98035.50;5033798;28;20048;-82
2020/12/31 07:49:52;;;;;;;4.60;2.97;;;;;;;-1.10;82.53;97998.56;5033615;28;20107;-83
2020/12/31 07:52:19;;;;;;;4.88;3.45;;;;;;;-0.87;82.24;98017.81;5033972;28;20061;-83
2020/12/31 07:54:45;;;;;;;5.57;3.40;;;;;;;-0.84;81.83;98016.69;5033404;28;20501;-83
2020/12/31 07:57:13;;;;;;;4.87;3.13;;;;;;;-0.82;81.88;98010.22;5034123;28;20413;-83
2020/12/31 07:59:44;;;;;;;6.37;3.67;;;;;;;-0.73;81.21;98017.38;5033687;28;20417;-83
2020/12/31 08:02:11;;;;;;;6.07;3.00;;;;;;;-0.73;81.07;98011.22;5033359;28;20053;-83
2020/12/31 08:04:38;;;;;;;3.83;2.97;;;;;;;-0.72;81.03;97999.56;5033329;28;20060;-83
2020/12/31 08:07:14;;;;;;;4.60;2.83;;;;;;;-0.59;80.77;98024.13;5037937;28;20052;-83
2020/12/31 08:09:41;;;;;;;6.47;3.77;;;;;;;-0.54;80.02;98000.50;5053697;28;20049;-83
2020/12/31 08:12:10;;;;;;;5.03;3.13;;;;;;;-0.54;81.24;98015.69;5046595;28;20128;-83
2020/12/31 08:14:41;;;;;;;6.60;3.80;;;;;;;-0.39;80.37;98019.59;5031445;28;20111;-83
2020/12/31 08:17:08;;;;;;;5.30;3.47;;;;;;;-0.31;80.42;98016.22;5033952;28;20108;-83
2020/12/31 08:19:36;;;;;;;5.67;3.57;;;;;;;-0.36;80.58;97989.09;5033073;28;20099;-83
2020/12/31 08:22:12;;;;;;;5.00;2.93;;;;;;;-0.24;79.47;98000.44;5033357;28;20406;-83
2020/12/31 08:24:45;;;;;;;6.37;3.40;;;;;;;-0.17;79.94;98008.72;5032647;28;20068;-83
2020/12/31 08:27:17;;;;;;;4.93;3.13;;;;;;;-0.14;79.02;98000.41;5032947;28;20131;-82
2020/12/31 08:29:44;;;;;;;6.67;3.63;;;;;;;-0.25;78.93;97969.38;5032832;28;20041;-83
2020/12/31 08:32:21;;;;;;;6.30;4.60;;;;;;;-0.13;78.43;97980.75;5033084;28;20037;-82
2020/12/31 08:34:51;;;;;;;7.83;4.27;;;;;;;-0.02;78.87;97997.41;5032493;28;20042;-83
2020/12/31 08:37:20;;;;;;;4.47;3.07;;;;;;;-0.12;79.44;97977.06;5033130;28;20057;-82
2020/12/31 08:39:49;;;;;;;4.40;3.05;;;;;;;0.16;77.85;98001.97;5033090;28;20052;-82
2020/12/31 08:42:19;;;;;;;6.47;3.30;;;;;;;0.19;77.86;98001.69;5032846;28;20050;-83
2020/12/31 08:44:51;;;;;;;4.95;2.88;;;;;;;0.14;77.34;97987.94;5032522;28;20053;-83
2020/12/31 08:47:19;;;;;;;3.90;2.63;;;;;;;0.14;77.75;97998.63;5033059;28;20049;-83
2020/12/31 08:49:50;;;;;;;4.97;3.23;;;;;;;0.22;77.87;97998.72;5033280;28;20560;-83
2020/12/31 08:52:18;;;;;;;5.13;3.33;;;;;;;0.19;78.30;97984.81;5033152;28;20420;-83
2020/12/31 08:54:44;;;;;;;6.20;3.40;;;;;;;0.26;78.31;97996.63;5033150;28;20049;-83
2020/12/31 08:57:15;;;;;;;4.20;3.23;;;;;;;0.21;77.44;97996.19;5032984;28;20045;-83
2020/12/31 08:59:42;;;;;;;5.07;3.47;;;;;;;0.18;77.19;97975.94;5033276;28;20050;-83
2020/12/31 09:02:12;;;;;;;6.47;3.87;;;;;;;0.40;76.19;98000.63;5033525;28;20460;-83
2020/12/31 09:04:38;;;;;;;6.35;3.03;;;;;;;0.42;77.37;98001.28;5033031;28;20148;-83
2020/12/31 09:07:10;;;;;;;5.53;3.30;;;;;;;0.38;77.68;97998.09;5033021;28;20045;-83
2020/12/31 09:09:38;;;;;;;8.07;3.63;;;;;;;0.46;76.83;97994.66;5033440;28;20080;-83
2020/12/31 09:12:15;;;;;;;6.07;3.33;;;;;;;0.57;77.02;98002.47;5033059;28;20104;-82
2020/12/31 09:14:57;;;;;;;5.37;3.50;;;;;;;0.44;77.98;97972.59;5030782;28;20049;-83
2020/12/31 09:17:24;;;;;;;5.87;3.50;;;;;;;0.38;77.73;97965.13;5032751;28;20053;-82
2020/12/31 09:19:51;;;;;;;5.83;3.77;;;;;;;0.60;78.16;97994.13;5033013;28;20058;-83
2020/12/31 09:22:17;;;;;;;6.83;4.00;;;;;;;0.55;77.84;97979.56;5051799;28;20064;-82
2020/12/31 09:24:45;;;;;;;6.57;3.47;;;;;;;0.62;78.10;97977.97;5037659;28;20115;-83
2020/12/31 09:27:11;;;;;;;9.07;4.80;;;;;;;0.69;77.89;97990.59;5032830;28;20049;-82
2020/12/31 09:29:38;;;;;;;6.95;4.03;;;;;;;0.60;78.52;97980.78;5032785;28;20050;-83
2020/12/31 09:32:04;;;;;;;6.13;4.03;;;;;;;0.88;77.31;97996.78;5035677;28;20095;-83
2020/12/31 09:34:30;;;;;;;7.43;4.20;;;;;;;0.74;78.14;97978.56;5035928;28;20103;-83
2020/12/31 09:36:59;;;;;;;7.70;4.47;;;;;;;0.81;77.90;97964.47;5035948;28;20048;-83
2020/12/31 09:39:26;;;;;;;9.00;4.47;;;;;;;0.83;78.95;97980.34;5035522;28;20060;-82
2020/12/31 09:41:53;;;;;;;7.90;4.57;;;;;;;0.92;77.68;97979.44;5029689;28;20091;-82
2020/12/31 09:44:23;;;;;;;8.37;3.97;;;;;;;0.87;78.04;97958.50;5033298;28;20049;-80
2020/12/31 09:46:50;;;;;;;9.40;4.43;;;;;;;1.05;78.05;97990.59;5015500;28;20139;-82
2020/12/31 09:49:17;;;;;;;10.60;4.73;;;;;;;1.02;77.88;97982.88;5015653;28;20049;-82
2020/12/31 09:51:43;;;;;;;8.45;4.57;;;;;;;0.98;78.14;97968.13;5014066;28;20050;-81
2020/12/31 09:54:09;;;;;;;6.87;4.60;;;;;;;1.04;78.51;97977.38;5015881;28;20050;-81
2020/12/31 09:56:35;;;;;;;10.95;5.20;;;;;;;1.11;79.29;97978.41;5030279;28;20057;-82
2020/12/31 09:59:03;;;;;;;7.22;5.00;;;;;;;1.11;79.11;97973.06;5035774;28;20072;-81
2020/12/31 10:01:29;;;;;;;9.10;5.10;;;;;;;1.20;79.02;97988.19;5036246;28;20466;-82
2020/12/31 10:03:55;;;;;;;8.10;4.75;;;;;;;1.24;78.28;97984.22;5035588;28;20048;-81
2020/12/31 10:06:22;;;;;;;5.97;3.97;;;;;;;1.23;77.88;97987.06;5035461;28;20053;-81
2020/12/31 10:08:48;;;;;;;9.90;4.90;;;;;;;1.13;78.52;97964.88;5035147;28;20045;-81
2020/12/31 10:11:15;;;;;;;9.85;5.45;;;;;;;1.32;79.40;97996.84;5035742;28;20131;-81
2020/12/31 10:13:41;;;;;;;8.30;4.60;;;;;;;1.25;79.13;97974.38;5035380;28;20049;-81
2020/12/31 10:16:08;;;;;;;9.70;5.28;;;;;;;1.42;79.01;97994.91;5035268;28;20106;-81
2020/12/31 10:18:34;;;;;;;8.70;4.80;;;;;;;1.38;80.00;97988.19;5035200;28;20053;-81
2020/12/31 10:21:01;;;;;;;7.55;4.30;;;;;;;1.32;79.23;97986.13;5035685;28;20053;-81
2020/12/31 10:23:27;;;;;;;6.97;4.03;;;;;;;1.22;80.03;97974.69;5035270;28;20405;-81
2020/12/31 10:25:54;;;;;;;10.02;5.47;;;;;;;1.16;80.68;97965.44;5034778;28;20091;-81
2020/12/31 10:28:20;;;;;;;11.15;5.22;;;;;;;1.12;81.78;97979.28;5034809;28;20049;-81
2020/12/31 10:30:47;;;;;;;9.88;5.00;;;;;;;1.10;82.48;97987.47;5034850;28;20144;-81
2020/12/31 10:33:14;;;;;;;7.15;4.65;;;;;;;0.81;82.86;97960.94;5035374;28;20045;-81
2020/12/31 10:35:40;;;;;;;8.95;5.22;;;;;;;0.91;84.30;97980.44;5035135;28;20050;-81
2020/12/31 10:38:07;;;;;;;9.05;5.85;;;;;;;0.74;84.03;97952.69;5035009;28;20574;-80
2020/12/31 10:40:33;;;;;;;13.38;6.03;;;;;;;0.85;84.31;97973.00;5034771;28;20414;-80
2020/12/31 10:42:59;;;;;;;10.02;5.80;;;;;;;0.67;84.70;97957.78;5034597;28;20107;-80
2020/12/31 10:45:26;;;;;;;9.10;5.35;;;;;;;0.58;85.24;97948.00;5034131;28;20520;-81
2020/12/31 10:47:52;;;;;;;8.77;5.65;;;;;;;0.61;85.82;97946.84;5034667;28;20046;-81
2020/12/31 10:50:19;;;;;;;8.30;5.85;;;;;;;0.68;84.87;97927.38;5034630;28;20042;-80
2020/12/31 10:52:46;;;;;;;10.00;6.17;;;;;;;0.69;85.17;97915.69;5034677;28;20057;-78
2020/12/31 10:55:12;;;;;;;9.23;5.88;;;;;;;0.76;85.51;97928.44;5034899;28;20441;-80
2020/12/31 10:57:38;;;;;;;14.57;7.93;;;;;;;0.78;85.92;97942.50;5033955;28;20049;-80
2020/12/31 11:00:05;;;;;;;11.03;6.17;;;;;;;0.81;85.90;97932.34;5034510;28;20049;-80
2020/12/31 11:02:31;;;;;;;11.63;6.80;;;;;;;0.66;86.18;97916.00;5034289;28;20494;-80
2020/12/31 11:04:57;;;;;;;12.67;6.77;;;;;;;0.79;85.92;97918.28;5033628;28;20053;-80
2020/12/31 11:07:24;;;;;;;12.17;7.07;;;;;;;0.59;86.49;97885.50;5034065;28;20107;-80
2020/12/31 11:09:50;;;;;;;14.03;7.10;;;;;;;0.80;85.92;97911.94;5033971;28;20494;-80
2020/12/31 11:12:17;;;;;;;13.63;7.00;;;;;;;0.76;85.98;97905.19;5034836;28;20049;-79
2020/12/31 11:14:43;;;;;;;13.10;7.10;;;;;;;0.74;86.24;97907.19;5034055;28;20064;-80
2020/12/31 11:17:09;;;;;;;13.03;6.67;;;;;;;0.71;86.88;97902.16;5034466;28;20110;-80
2020/12/31 11:19:35;;;;;;;12.03;7.13;;;;;;;0.67;87.64;97898.94;5034313;28;20112;-80
2020/12/31 11:22:02;;;;;;;11.27;6.77;;;;;;;0.91;86.44;97893.97;5031229;28;20111;-80
2020/12/31 11:24:35;;;;;;;13.40;7.10;;;;;;;0.81;87.07;97877.97;5034145;28;20057;-79
2020/12/31 11:27:02;;;;;;;14.13;6.73;;;;;;;0.93;87.46;97892.78;5034403;28;20054;-79
2020/12/31 11:29:28;;;;;;;12.57;7.17;;;;;;;0.84;87.99;97885.69;5033510;28;20092;-80
2020/12/31 11:31:54;;;;;;;12.37;6.67;;;;;;;1.02;88.39;97891.88;5030434;28;20041;-80
2020/12/31 11:34:21;;;;;;;11.83;6.90;;;;;;;1.20;87.11;97886.47;5014353;28;20050;-80
2020/12/31 11:36:47;;;;;;;9.90;6.18;;;;;;;1.18;87.68;97893.00;5020477;28;20084;-79
2020/12/31 11:39:13;;;;;;;14.25;6.68;;;;;;;1.24;88.17;97887.00;5033693;28;20144;-80
2020/12/31 11:41:40;;;;;;;12.68;7.03;;;;;;;1.06;87.05;97865.63;5033490;28;20050;-80